Time;durP1;ratioP1;P1;durP2;ratioP2;P2;SDS_P1;SDS_P2;PMS_P1;PMS_P2;Temp;Humidity;BMP_temperature;BMP_pressure;BME280_temperature;BME280_humidity;BME280_pressure;Samples;Min_cycle;Max_cycle;Signal;HPM_P1;HPM_P2
2022/05/26 07:29:14;;;;;;;3.60;1.83;;;;;;;15.91;100.00;96997.94;5075094;27;2175854;-83
2022/05/26 07:31:41;;;;;;;2.00;1.80;;;;;;;15.93;100.00;97000.41;5150321;27;20508;-84
2022/05/26 07:34:08;;;;;;;3.53;1.70;;;;;;;15.86;100.00;97000.59;5156675;27;20202;-83
2022/05/26 07:45:07;;;;;;;3.33;1.70;;;;;;;16.28;100.00;96993.63;5033704;27;20565;-84
2022/05/26 07:47:34;;;;;;;1.90;1.40;;;;;;;16.39;100.00;96991.03;4966543;28;20253;-84
2022/05/26 07:50:01;;;;;;;2.00;1.80;;;;;;;16.47;100.00;96979.69;5036961;28;20256;-84
2022/05/26 07:52:29;;;;;;;2.67;2.00;;;;;;;16.61;100.00;96981.81;5028986;28;20284;-83
2022/05/26 07:54:56;;;;;;;3.53;1.60;;;;;;;16.69;99.21;96974.28;5052701;28;20226;-85
2022/05/26 07:57:25;;;;;;;3.77;1.80;;;;;;;16.80;97.43;96976.06;5050642;28;20229;-85
2022/05/26 07:59:54;;;;;;;1.90;1.67;;;;;;;16.91;95.73;96969.66;5034108;28;20237;-85
2022/05/26 08:02:23;;;;;;;3.70;1.73;;;;;;;17.03;93.96;96978.50;5038892;28;20244;-84
2022/05/26 08:04:50;;;;;;;1.97;1.73;;;;;;;17.20;92.24;96973.78;5037078;28;20230;-85
2022/05/26 08:07:18;;;;;;;2.37;1.70;;;;;;;17.38;89.59;96970.69;5036678;28;20284;-86
2022/05/26 08:09:45;;;;;;;3.27;2.00;;;;;;;17.65;88.45;96970.72;5038121;28;20241;-84
2022/05/26 08:12:14;;;;;;;4.57;1.70;;;;;;;17.97;88.22;96972.59;5033664;28;20233;-84
2022/05/26 08:14:43;;;;;;;3.43;1.70;;;;;;;18.29;87.49;96980.75;5041021;28;20241;-85
2022/05/26 08:17:13;;;;;;;2.37;1.37;;;;;;;18.65;81.94;96965.38;5033552;28;20321;-85
2022/05/26 08:19:42;;;;;;;2.13;1.40;;;;;;;18.92;78.67;96966.06;5034807;28;20284;-85
2022/05/26 08:22:10;;;;;;;3.33;1.73;;;;;;;19.30;78.50;96961.25;5024000;28;20227;-84
2022/05/26 08:24:37;;;;;;;3.30;1.40;;;;;;;19.57;76.91;96959.94;5027187;28;20227;-84
2022/05/26 08:27:06;;;;;;;2.17;1.50;;;;;;;19.68;73.35;96970.91;5034118;28;20268;-84
2022/05/26 08:29:34;;;;;;;3.03;1.20;;;;;;;19.70;70.33;96974.19;5032744;28;20334;-85
2022/05/26 08:32:01;;;;;;;2.50;1.30;;;;;;;19.82;66.82;96969.28;5029832;28;20238;-85
2022/05/26 08:34:28;;;;;;;1.52;1.00;;;;;;;19.75;68.82;96971.44;5051336;28;20230;-85
2022/05/26 08:36:57;;;;;;;1.80;1.20;;;;;;;20.03;69.33;96958.03;5038448;28;20234;-84
2022/05/26 08:39:24;;;;;;;3.70;1.63;;;;;;;20.56;66.88;96949.44;5046411;28;20230;-84
2022/05/26 08:41:54;;;;;;;2.22;1.50;;;;;;;20.80;65.91;96958.69;5037321;28;20280;-85
2022/05/26 08:44:28;;;;;;;2.33;1.58;;;;;;;20.64;66.34;96951.63;5035086;28;20268;-84
2022/05/26 08:47:01;;;;;;;2.55;1.58;;;;;;;20.63;67.26;96949.97;5051721;28;20221;-84
2022/05/26 08:49:35;;;;;;;1.70;1.30;;;;;;;20.73;65.49;96942.53;5058454;28;20233;-86
2022/05/26 08:52:09;;;;;;;2.05;1.42;;;;;;;20.72;64.92;96943.63;5057447;28;20316;-84
2022/05/26 08:54:40;;;;;;;1.40;1.23;;;;;;;20.97;66.38;96944.63;5033360;28;20255;-85
2022/05/26 08:57:13;;;;;;;3.50;1.40;;;;;;;21.20;66.83;96943.13;5010907;28;20239;-84
2022/05/26 08:59:44;;;;;;;3.55;1.45;;;;;;;21.11;65.60;96938.22;5020624;28;20235;-84
2022/05/26 09:02:23;;;;;;;2.90;1.50;;;;;;;20.65;69.02;96931.31;5022388;28;20229;-85
2022/05/26 09:04:52;;;;;;;1.65;1.33;;;;;;;20.98;68.19;96929.78;5023476;28;20284;-84
2022/05/26 09:13:05;;;;;;;2.97;1.35;;;;;;;21.09;65.88;96925.88;5011127;28;20222;-84
2022/05/26 09:15:36;;;;;;;2.45;1.60;;;;;;;21.04;66.16;96923.97;5020966;28;20238;-85
2022/05/26 09:18:12;;;;;;;2.75;1.40;;;;;;;21.34;62.31;96928.50;5024442;28;20293;-85
2022/05/26 09:20:41;;;;;;;1.65;1.40;;;;;;;21.54;60.34;96927.53;5010326;28;20227;-84
2022/05/26 09:23:23;;;;;;;4.53;1.33;;;;;;;21.56;61.67;96930.00;5014290;28;20319;-85
2022/05/26 09:25:53;;;;;;;1.83;1.30;;;;;;;21.62;60.88;96929.66;5016593;28;20239;-85
2022/05/26 09:28:29;;;;;;;1.77;1.60;;;;;;;21.69;62.79;96919.16;5018903;28;20243;-84
2022/05/26 09:30:56;;;;;;;1.30;1.20;;;;;;;21.67;62.28;96912.34;5009830;28;20233;-85
2022/05/26 09:33:30;;;;;;;1.83;1.70;;;;;;;21.63;63.81;96925.81;5026561;28;20254;-84
2022/05/26 09:36:15;;;;;;;4.38;1.50;;;;;;;21.59;61.63;96924.75;5016440;28;20227;-84
2022/05/26 09:38:47;;;;;;;2.20;1.35;;;;;;;21.58;63.16;96922.31;5011656;28;20305;-84
2022/05/26 09:41:17;;;;;;;2.03;1.42;;;;;;;21.49;63.23;96917.41;5019433;28;20311;-85
2022/05/26 09:43:49;;;;;;;1.40;1.30;;;;;;;21.57;61.34;96921.47;5043978;28;20265;-84
2022/05/26 09:46:18;;;;;;;1.73;1.30;;;;;;;21.49;62.00;96925.66;5021303;28;20219;-85
2022/05/26 09:48:51;;;;;;;1.30;1.20;;;;;;;21.39;58.70;96928.47;5017208;28;20237;-84
2022/05/26 09:51:24;;;;;;;1.83;1.52;;;;;;;21.29;59.48;96924.97;5012418;28;20234;-86
2022/05/26 09:53:54;;;;;;;3.17;1.30;;;;;;;21.26;60.00;96920.88;5021641;28;20337;-84
2022/05/26 09:56:31;;;;;;;1.73;1.58;;;;;;;21.36;61.74;96919.97;5014279;28;20227;-84
2022/05/26 09:58:59;;;;;;;3.15;1.48;;;;;;;21.59;64.14;96918.44;5019493;28;20231;-87
2022/05/26 10:01:43;;;;;;;3.47;1.40;;;;;;;21.55;60.43;96917.38;5011742;28;20305;-84
2022/05/26 10:04:24;;;;;;;2.08;1.48;;;;;;;21.66;61.34;96917.00;5027769;28;20298;-84
2022/05/26 10:06:59;;;;;;;2.10;1.48;;;;;;;21.66;60.53;96922.50;5010504;28;20281;-84
2022/05/26 10:09:37;;;;;;;2.65;1.40;;;;;;;21.78;61.85;96916.63;5026411;28;20275;-84
2022/05/26 10:12:12;;;;;;;2.78;1.42;;;;;;;21.99;59.74;96911.81;5014856;28;20221;-84
2022/05/26 10:14:59;;;;;;;3.25;1.40;;;;;;;22.06;58.97;96912.28;5023561;28;20231;-85
2022/05/26 10:17:45;;;;;;;2.40;1.50;;;;;;;22.15;58.76;96911.38;5020475;28;20242;-85
2022/05/26 10:20:29;;;;;;;1.95;1.40;;;;;;;22.15;58.55;96905.88;5017810;28;20298;-85
2022/05/26 10:23:08;;;;;;;2.53;1.40;;;;;;;22.14;57.56;96908.91;5016830;28;20249;-86
2022/05/26 10:25:42;;;;;;;1.65;1.55;;;;;;;22.21;57.94;96907.44;5016701;28;20227;-84
2022/05/26 10:28:32;;;;;;;2.15;1.70;;;;;;;22.23;57.68;96898.91;5010361;28;20259;-84
2022/05/26 10:31:13;;;;;;;1.85;1.55;;;;;;;22.38;60.02;96895.97;5012986;28;20297;-85
2022/05/26 10:33:57;;;;;;;2.25;1.40;;;;;;;22.73;59.29;96904.94;5014343;28;20238;-85
2022/05/26 10:36:41;;;;;;;2.53;1.70;;;;;;;23.03;55.73;96910.09;5024849;28;20230;-84
2022/05/26 10:39:15;;;;;;;1.40;1.25;;;;;;;23.01;56.70;96907.63;5020053;28;20234;-84
2022/05/26 10:41:48;;;;;;;1.58;1.40;;;;;;;22.77;58.30;96904.09;5036029;28;20262;-84
2022/05/26 10:44:24;;;;;;;1.63;1.40;;;;;;;22.47;59.44;96896.16;5011878;28;20245;-85
2022/05/26 10:46:58;;;;;;;2.72;1.50;;;;;;;22.29;61.54;96875.72;5017964;28;20231;-85
2022/05/26 10:49:34;;;;;;;1.52;1.38;;;;;;;22.45;61.18;96881.91;5019475;28;20218;-84
2022/05/26 10:52:11;;;;;;;2.13;1.65;;;;;;;22.79;60.10;96890.03;5014703;28;20238;-84
2022/05/26 10:54:46;;;;;;;1.65;1.20;;;;;;;22.93;58.39;96893.69;5009793;28;20642;-85
2022/05/26 10:57:22;;;;;;;1.65;1.30;;;;;;;22.50;58.25;96882.66;5023360;28;20233;-84
2022/05/26 10:59:59;;;;;;;2.92;1.40;;;;;;;22.42;60.02;96886.03;5017036;28;20281;-85
2022/05/26 11:02:33;;;;;;;1.52;1.25;;;;;;;22.19;60.67;96876.69;5024563;28;20317;-84
2022/05/26 11:05:04;;;;;;;1.80;1.58;;;;;;;22.35;60.82;96882.81;5009691;28;20246;-85
2022/05/26 11:07:37;;;;;;;2.67;1.25;;;;;;;22.62;60.28;96872.06;5018631;28;20234;-84
2022/05/26 11:10:08;;;;;;;1.88;1.40;;;;;;;22.75;59.16;96880.72;5018492;28;20272;-86
2022/05/26 11:12:46;;;;;;;1.65;1.50;;;;;;;23.04;59.19;96884.19;5023530;28;20241;-86
2022/05/26 11:18:15;;;;;;;1.65;1.20;;;;;;;22.98;57.04;96879.84;4958796;28;20221;-84
2022/05/26 11:20:49;;;;;;;1.92;1.10;;;;;;;23.35;56.47;96871.59;5023744;28;20280;-85
2022/05/26 11:23:18;;;;;;;3.67;1.50;;;;;;;23.65;56.09;96877.75;5018209;28;20235;-84
2022/05/26 11:25:55;;;;;;;2.92;1.30;;;;;;;23.46;55.98;96868.69;5016727;28;20226;-85
2022/05/26 11:28:31;;;;;;;1.63;1.30;;;;;;;23.20;54.25;96866.31;5023253;28;20292;-84
2022/05/26 11:36:49;;;;;;;1.55;1.27;;;;;;;23.38;54.50;96868.25;5033761;28;20223;-85
2022/05/26 11:39:28;;;;;;;1.67;1.30;;;;;;;23.23;56.42;96867.63;5018185;28;20280;-84
2022/05/26 11:41:58;;;;;;;1.85;1.58;;;;;;;23.25;55.63;96868.97;5018184;28;20222;-84
2022/05/26 11:44:39;;;;;;;2.42;1.30;;;;;;;23.34;55.95;96867.19;5011041;28;20286;-84
2022/05/26 11:47:49;;;;;;;2.63;1.30;;;;;;;23.09;55.98;96864.00;5031384;28;20235;-85
2022/05/26 11:50:30;;;;;;;3.45;1.40;;;;;;;22.98;57.58;96866.91;4968770;28;20224;-84
2022/05/26 11:53:14;;;;;;;2.03;1.30;;;;;;;22.79;56.72;96868.84;5016275;28;20221;-85
2022/05/26 11:55:51;;;;;;;3.88;1.30;;;;;;;22.79;57.70;96868.00;5012195;28;20250;-84
2022/05/26 11:58:32;;;;;;;1.38;1.20;;;;;;;22.44;57.50;96853.56;5023509;28;20241;-85
2022/05/26 12:01:42;;;;;;;2.35;1.40;;;;;;;22.21;57.49;96855.19;5018961;28;20261;-84
2022/05/26 12:04:34;;;;;;;2.42;1.40;;;;;;;21.98;58.48;96858.72;4966761;28;20268;-85
2022/05/26 12:07:04;;;;;;;1.95;1.33;;;;;;;21.90;59.42;96851.91;5012557;28;20222;-84
2022/05/26 12:09:36;;;;;;;1.83;1.20;;;;;;;22.08;60.14;96852.31;5019635;28;20218;-84
2022/05/26 12:12:07;;;;;;;1.55;1.45;;;;;;;22.19;59.28;96862.94;5015288;28;20297;-85
2022/05/26 12:14:39;;;;;;;2.03;1.30;;;;;;;22.29;58.05;96861.97;5012113;28;20233;-85
2022/05/26 12:17:34;;;;;;;3.03;1.30;;;;;;;22.30;58.92;96858.09;5015200;28;20233;-84
2022/05/26 12:20:06;;;;;;;1.83;1.20;;;;;;;22.11;57.43;96854.50;5008572;28;20242;-85
2022/05/26 12:22:37;;;;;;;1.35;1.25;;;;;;;22.07;59.72;96859.75;5024369;28;20222;-84
2022/05/26 12:25:18;;;;;;;2.47;1.35;;;;;;;22.00;59.16;96855.69;5013146;28;20242;-85
2022/05/26 12:28:00;;;;;;;6.18;1.67;;;;;;;22.06;60.95;96847.09;5013045;28;20275;-85
2022/05/26 12:31:13;;;;;;;4.13;1.23;;;;;;;21.98;59.74;96849.66;5012155;28;20234;-86
2022/05/26 12:34:12;;;;;;;2.58;1.75;;;;;;;21.95;61.53;96850.22;5020784;28;20289;-85
2022/05/26 12:36:52;;;;;;;1.92;1.35;;;;;;;21.97;60.81;96848.00;5018202;28;20229;-87
2022/05/26 12:40:01;;;;;;;2.13;1.35;;;;;;;22.01;59.52;96849.09;5033503;28;20317;-86
2022/05/26 12:43:13;;;;;;;2.03;1.30;;;;;;;22.13;58.89;96853.06;5018909;28;20231;-86
2022/05/26 12:45:50;;;;;;;1.38;1.23;;;;;;;22.20;59.49;96842.53;4960625;28;20239;-86
2022/05/26 12:48:55;;;;;;;2.95;1.50;;;;;;;22.31;59.18;96846.00;5015645;28;20226;-86
2022/05/26 12:51:23;;;;;;;2.55;1.17;;;;;;;22.31;58.88;96840.50;5012070;28;20235;-85
2022/05/26 12:53:55;;;;;;;3.47;1.50;;;;;;;22.31;59.66;96842.41;5022320;28;20305;-86
2022/05/26 12:56:30;;;;;;;2.67;1.27;;;;;;;22.26;58.69;96833.13;5023574;28;20320;-85
2022/05/26 12:59:00;;;;;;;2.28;1.50;;;;;;;22.28;58.53;96838.34;5022420;28;20261;-85
2022/05/26 13:01:30;;;;;;;2.22;1.25;;;;;;;22.32;59.23;96835.81;5042348;28;20302;-86
2022/05/26 13:04:05;;;;;;;2.15;1.30;;;;;;;22.41;61.17;96821.09;5035437;28;20310;-86
2022/05/26 13:06:37;;;;;;;1.67;1.40;;;;;;;22.36;59.82;96832.19;5022142;28;20277;-85
2022/05/26 13:09:09;;;;;;;2.22;1.20;;;;;;;22.37;58.84;96830.25;5015057;28;20262;-86
2022/05/26 13:11:45;;;;;;;3.78;1.30;;;;;;;22.27;58.50;96822.94;5021367;28;20242;-86
2022/05/26 13:14:28;;;;;;;2.70;1.70;;;;;;;22.14;59.46;96820.88;5036108;28;20323;-86
2022/05/26 13:16:59;;;;;;;3.95;1.58;;;;;;;22.16;60.37;96822.25;5019347;28;20238;-85
2022/05/26 13:19:29;;;;;;;2.50;1.40;;;;;;;22.14;60.16;96820.88;5034270;28;20255;-86
2022/05/26 13:21:58;;;;;;;1.42;1.20;;;;;;;22.12;59.84;96829.41;5024797;28;20231;-85
2022/05/26 13:24:28;;;;;;;3.45;1.27;;;;;;;22.02;60.39;96820.50;5013030;28;20237;-86
2022/05/26 13:27:02;;;;;;;4.22;1.30;;;;;;;22.04;60.18;96823.75;5014399;28;20223;-86
2022/05/26 13:29:31;;;;;;;2.22;1.45;;;;;;;22.09;59.88;96834.69;5039935;28;20219;-85
2022/05/26 13:34:49;;;;;;;2.47;1.35;;;;;;;22.19;60.13;96829.09;5039515;28;20250;-86
2022/05/26 13:37:21;;;;;;;1.92;1.25;;;;;;;22.25;61.02;96827.91;5028878;28;20668;-86
2022/05/26 13:40:06;;;;;;;1.30;1.20;;;;;;;22.12;60.65;96828.59;5014621;28;20230;-86
2022/05/26 13:42:35;;;;;;;3.72;1.30;;;;;;;22.09;60.75;96829.22;5016368;28;20231;-86
2022/05/26 13:45:04;;;;;;;1.50;1.40;;;;;;;22.14;61.24;96829.97;5021483;28;20233;-85
2022/05/26 13:47:32;;;;;;;4.88;1.60;;;;;;;22.07;60.56;96821.25;5018847;28;20230;-85
2022/05/26 13:50:04;;;;;;;1.40;1.30;;;;;;;22.06;60.93;96827.03;5022045;28;20242;-85
2022/05/26 13:52:34;;;;;;;2.90;1.50;;;;;;;22.12;61.59;96823.91;5019652;28;20223;-85
2022/05/26 13:55:07;;;;;;;4.43;1.80;;;;;;;22.09;61.50;96818.19;5015838;28;20234;-85
2022/05/26 13:57:40;;;;;;;3.45;1.80;;;;;;;22.04;61.48;96815.50;5022451;28;20231;-85
2022/05/26 14:00:19;;;;;;;1.80;1.40;;;;;;;21.97;61.79;96826.84;5017218;28;20239;-86
2022/05/26 14:02:52;;;;;;;3.13;1.50;;;;;;;22.11;62.32;96816.00;5033290;28;20222;-85
2022/05/26 14:05:23;;;;;;;5.60;1.58;;;;;;;22.14;61.47;96812.63;5021538;28;20278;-86
2022/05/26 14:08:03;;;;;;;1.30;1.20;;;;;;;22.16;61.67;96805.72;5033064;28;20224;-86
2022/05/26 14:10:40;;;;;;;2.50;1.50;;;;;;;22.14;62.19;96810.69;5028243;28;20218;-86
2022/05/26 14:13:10;;;;;;;4.55;1.50;;;;;;;22.15;62.33;96820.59;5019989;28;20227;-85
2022/05/26 14:15:43;;;;;;;2.08;1.50;;;;;;;22.19;62.87;96805.16;5023165;28;20367;-85
2022/05/26 14:18:23;;;;;;;1.77;1.63;;;;;;;22.07;62.38;96807.50;5013685;28;20260;-85
2022/05/26 14:21:01;;;;;;;4.18;1.65;;;;;;;22.09;62.90;96807.19;5016225;28;20230;-86
2022/05/26 14:23:29;;;;;;;2.25;1.45;;;;;;;22.13;62.30;96811.81;5019839;28;20222;-86
2022/05/26 14:25:58;;;;;;;3.22;1.77;;;;;;;22.12;62.62;96812.09;5014465;28;20268;-85
2022/05/26 14:28:35;;;;;;;2.70;1.35;;;;;;;22.12;62.00;96810.16;5014818;28;20318;-86
2022/05/26 14:31:03;;;;;;;1.58;1.35;;;;;;;22.14;63.85;96812.63;5025573;28;20227;-85
2022/05/26 14:33:34;;;;;;;2.22;1.30;;;;;;;22.08;62.75;96811.06;5023645;28;20226;-85
2022/05/26 14:36:02;;;;;;;3.58;1.50;;;;;;;22.09;63.55;96801.69;5021099;28;20234;-86
2022/05/26 14:38:29;;;;;;;4.47;1.45;;;;;;;22.00;62.55;96811.69;5011665;28;20329;-86
2022/05/26 14:40:57;;;;;;;2.00;1.50;;;;;;;22.03;62.66;96809.16;5034315;28;20230;-86
2022/05/26 14:43:33;;;;;;;2.47;1.40;;;;;;;22.06;63.87;96808.59;5019948;28;20305;-85
2022/05/26 14:46:00;;;;;;;3.55;1.70;;;;;;;22.11;63.55;96805.00;5015718;28;20230;-86
2022/05/26 14:48:29;;;;;;;3.88;1.48;;;;;;;22.11;61.70;96799.47;5028242;28;20226;-85
2022/05/26 14:50:56;;;;;;;2.25;1.60;;;;;;;22.20;62.23;96803.22;5015031;28;20227;-85
2022/05/26 14:56:09;;;;;;;1.35;1.20;;;;;;;22.14;62.04;96793.38;5010903;28;20234;-85
2022/05/26 14:58:36;;;;;;;1.63;1.10;;;;;;;22.17;62.37;96798.31;4980802;28;20316;-85
2022/05/26 15:01:07;;;;;;;3.13;1.25;;;;;;;22.15;62.49;96795.03;5016798;28;20225;-86
2022/05/26 15:03:35;;;;;;;1.98;1.30;;;;;;;22.21;62.46;96796.59;5032256;28;20234;-85
2022/05/26 15:06:02;;;;;;;1.50;1.40;;;;;;;22.18;62.60;96795.28;5021714;28;20285;-86
2022/05/26 15:08:41;;;;;;;2.13;1.60;;;;;;;22.20;63.32;96803.22;5036867;28;20299;-85
2022/05/26 15:11:08;;;;;;;3.08;1.70;;;;;;;22.18;62.96;96805.44;5013116;28;20230;-85
2022/05/26 15:13:35;;;;;;;2.88;1.30;;;;;;;22.27;63.90;96800.94;5022821;28;20235;-86
2022/05/26 15:16:03;;;;;;;1.35;1.20;;;;;;;22.33;62.54;96799.75;5015209;28;20234;-86
2022/05/26 15:18:30;;;;;;;3.05;1.30;;;;;;;22.41;61.45;96803.78;5020527;28;20346;-86
2022/05/26 15:20:58;;;;;;;4.20;1.60;;;;;;;22.40;61.43;96808.47;5022026;28;20226;-86
2022/05/26 15:23:25;;;;;;;2.05;1.20;;;;;;;22.43;61.62;96807.06;5016293;28;20227;-85
2022/05/26 15:28:41;;;;;;;2.38;1.60;;;;;;;22.35;62.98;96805.78;5015965;28;20310;-86
2022/05/26 15:31:08;;;;;;;2.45;1.30;;;;;;;22.43;61.51;96807.88;5036101;28;20253;-85
2022/05/26 15:33:38;;;;;;;1.77;1.52;;;;;;;22.48;61.15;96815.25;5011990;28;20266;-86
2022/05/26 15:36:08;;;;;;;2.65;1.38;;;;;;;22.51;61.53;96798.16;5019837;28;20350;-86
2022/05/26 15:38:38;;;;;;;2.53;1.80;;;;;;;22.42;61.50;96814.50;5016790;28;20242;-85
2022/05/26 15:41:08;;;;;;;3.67;1.73;;;;;;;22.44;62.69;96798.53;5018630;28;20320;-86
2022/05/26 15:43:35;;;;;;;2.80;1.30;;;;;;;22.40;63.45;96807.66;5015083;28;20320;-85
2022/05/26 15:46:07;;;;;;;3.17;2.35;;;;;;;22.49;63.13;96816.88;5032422;28;20241;-86
2022/05/26 15:48:35;;;;;;;2.80;1.95;;;;;;;22.51;62.48;96807.22;5022934;28;20273;-86
2022/05/26 15:51:02;;;;;;;2.00;1.63;;;;;;;22.59;61.96;96808.50;5021352;28;20313;-86
2022/05/26 15:53:30;;;;;;;5.22;1.67;;;;;;;22.46;62.94;96810.03;5022755;28;20296;-86
2022/05/26 15:55:58;;;;;;;2.78;1.80;;;;;;;22.39;62.87;96811.50;5018820;28;20238;-85
2022/05/26 15:58:28;;;;;;;2.25;1.50;;;;;;;22.29;62.39;96806.94;5033162;28;20231;-86
2022/05/26 16:00:56;;;;;;;2.10;1.30;;;;;;;22.22;63.46;96806.47;5013341;28;20237;-86
2022/05/26 16:03:24;;;;;;;3.00;1.73;;;;;;;22.18;62.63;96816.44;5021349;28;20237;-86
2022/05/26 16:05:52;;;;;;;2.45;1.25;;;;;;;22.09;63.20;96802.53;5014398;28;20214;-86
2022/05/26 16:08:20;;;;;;;7.50;1.40;;;;;;;22.18;63.47;96803.53;5016665;28;20311;-86
2022/05/26 16:10:47;;;;;;;1.58;1.48;;;;;;;22.13;62.71;96813.75;5023266;28;20221;-86
2022/05/26 16:13:16;;;;;;;2.17;1.52;;;;;;;22.09;64.08;96808.03;5020969;28;20203;-85
2022/05/26 16:15:46;;;;;;;1.42;1.30;;;;;;;21.94;64.80;96801.84;5025343;28;20227;-85
2022/05/26 16:18:14;;;;;;;1.90;1.50;;;;;;;21.99;63.95;96808.13;5041405;28;20414;-86
2022/05/26 16:20:41;;;;;;;3.25;1.92;;;;;;;22.00;63.61;96806.19;5021136;28;20261;-86
2022/05/26 16:23:15;;;;;;;3.35;1.85;;;;;;;21.99;63.80;96808.13;5021023;28;20210;-84
2022/05/26 16:25:44;;;;;;;2.80;1.50;;;;;;;21.98;63.85;96811.16;5025010;28;20202;-84
2022/05/26 16:28:11;;;;;;;1.80;1.52;;;;;;;22.00;63.73;96814.44;5022358;28;20206;-84
2022/05/26 16:30:38;;;;;;;2.20;1.63;;;;;;;21.93;63.85;96812.03;5040161;28;20210;-84
2022/05/26 16:33:07;;;;;;;4.32;2.03;;;;;;;21.86;64.39;96804.09;5041504;28;20215;-85
2022/05/26 16:38:25;;;;;;;3.58;1.63;;;;;;;21.76;66.23;96809.72;5020406;28;20222;-82
2022/05/26 16:40:53;;;;;;;2.42;1.60;;;;;;;21.78;66.28;96812.97;5034067;28;20218;-83
2022/05/26 16:43:20;;;;;;;2.75;1.80;;;;;;;21.75;65.56;96808.09;5024764;28;20244;-83
2022/05/26 16:45:48;;;;;;;2.17;1.75;;;;;;;21.80;66.46;96810.78;5021959;28;20238;-85
2022/05/26 16:48:17;;;;;;;3.92;1.70;;;;;;;21.85;66.22;96809.91;5017442;28;20218;-83
2022/05/26 16:50:45;;;;;;;5.00;1.60;;;;;;;21.83;66.22;96815.69;5017656;28;20213;-85
2022/05/26 16:53:14;;;;;;;5.80;2.30;;;;;;;21.76;68.08;96806.97;5025308;28;20206;-84
2022/05/26 16:55:46;;;;;;;4.43;1.90;;;;;;;21.83;67.85;96810.19;5023936;28;20246;-84
2022/05/26 16:58:16;;;;;;;5.13;1.73;;;;;;;21.75;65.35;96807.25;5020311;28;20203;-84
2022/05/26 17:00:44;;;;;;;2.25;1.38;;;;;;;21.64;65.52;96809.28;5022832;28;20206;-84
2022/05/26 17:03:12;;;;;;;2.25;1.50;;;;;;;21.61;65.82;96807.09;5023494;28;20214;-85
2022/05/26 17:05:42;;;;;;;2.13;1.40;;;;;;;21.60;64.59;96805.50;5022741;28;20225;-85
2022/05/26 17:08:12;;;;;;;3.60;1.60;;;;;;;21.58;66.14;96813.19;5020162;28;20211;-84
2022/05/26 17:10:42;;;;;;;3.03;2.00;;;;;;;21.55;64.96;96808.28;5036032;28;20203;-86
2022/05/26 17:21:26;;;;;;;2.28;1.75;;;;;;;21.51;66.14;96801.72;5037640;28;20207;-84
2022/05/26 17:23:57;;;;;;;2.25;1.45;;;;;;;21.55;66.34;96812.94;5021385;28;20221;-80
2022/05/26 17:26:30;;;;;;;3.40;1.63;;;;;;;21.49;68.02;96812.19;5034339;28;20301;-80
2022/05/26 17:28:57;;;;;;;5.72;4.30;;;;;;;21.51;67.43;96812.72;5021532;28;20504;-81
2022/05/26 17:31:25;;;;;;;2.33;2.13;;;;;;;21.46;68.12;96804.50;5025488;28;20299;-81
2022/05/26 17:33:53;;;;;;;2.80;1.60;;;;;;;21.41;67.96;96812.81;5017966;28;20204;-79
2022/05/26 17:36:22;;;;;;;2.35;1.52;;;;;;;21.39;67.33;96818.56;5023523;28;20238;-80
2022/05/26 17:38:51;;;;;;;2.78;2.00;;;;;;;21.29;66.58;96818.66;5019633;28;20215;-80
2022/05/26 17:41:34;;;;;;;1.90;1.50;;;;;;;21.31;66.33;96812.88;5019465;28;20199;-81
2022/05/26 17:44:03;;;;;;;3.15;1.70;;;;;;;21.38;65.64;96808.69;5025185;28;20238;-80
2022/05/26 17:46:32;;;;;;;2.83;1.60;;;;;;;21.43;67.69;96818.84;5044141;28;20207;-80
2022/05/26 17:49:00;;;;;;;2.08;1.50;;;;;;;21.45;69.49;96820.16;5034099;28;20238;-80
2022/05/26 17:51:27;;;;;;;3.75;1.38;;;;;;;21.46;72.77;96821.00;5017090;28;20221;-80
2022/05/26 17:53:56;;;;;;;1.98;1.40;;;;;;;21.31;74.11;96816.44;5019875;28;20207;-80
2022/05/26 17:56:24;;;;;;;1.40;1.30;;;;;;;21.25;75.21;96814.88;5023307;28;20222;-80
2022/05/26 17:58:51;;;;;;;4.45;2.80;;;;;;;21.15;75.77;96809.41;5018967;28;20226;-81
2022/05/26 18:01:22;;;;;;;2.83;2.63;;;;;;;21.04;75.65;96814.16;5014355;28;20214;-79
2022/05/26 18:03:50;;;;;;;2.75;1.92;;;;;;;20.97;75.97;96808.16;5038745;28;20214;-80
2022/05/26 18:06:18;;;;;;;4.40;1.92;;;;;;;20.87;76.75;96805.47;5023680;28;20225;-80
2022/05/26 18:08:46;;;;;;;5.20;2.35;;;;;;;20.91;76.42;96816.72;5019360;28;20211;-80
2022/05/26 18:11:15;;;;;;;2.58;1.85;;;;;;;20.84;77.12;96808.00;5021601;28;20256;-80
2022/05/26 18:13:42;;;;;;;1.83;1.40;;;;;;;20.76;77.91;96815.69;5022314;28;20212;-85
2022/05/26 18:16:11;;;;;;;4.65;1.50;;;;;;;20.76;79.77;96821.19;5018598;28;20241;-85
2022/05/26 18:18:45;;;;;;;1.75;1.60;;;;;;;20.78;80.57;96809.94;5013668;28;20215;-86
2022/05/26 18:21:13;;;;;;;3.38;1.70;;;;;;;20.70;81.07;96813.28;5020898;28;20224;-84
2022/05/26 18:23:44;;;;;;;1.70;1.40;;;;;;;20.70;81.37;96824.25;5032030;28;20197;-84
2022/05/26 18:26:11;;;;;;;2.20;1.65;;;;;;;20.70;81.14;96814.09;5020648;28;20215;-85
2022/05/26 18:28:39;;;;;;;2.55;1.52;;;;;;;20.57;83.89;96814.75;5017438;28;20204;-85
2022/05/26 18:31:07;;;;;;;2.90;2.00;;;;;;;20.54;83.85;96815.28;5016560;28;20242;-86
2022/05/26 18:33:35;;;;;;;2.03;1.60;;;;;;;20.46;83.92;96829.59;5015003;28;20206;-84
2022/05/26 18:36:02;;;;;;;2.08;1.63;;;;;;;20.41;84.43;96826.88;5017640;28;20203;-85
2022/05/26 18:38:32;;;;;;;5.18;1.90;;;;;;;20.34;84.11;96829.91;5018863;28;20321;-86
2022/05/26 18:41:00;;;;;;;4.53;1.48;;;;;;;20.15;82.93;96826.13;5018751;28;20248;-85
2022/05/26 18:43:27;;;;;;;2.88;2.03;;;;;;;19.96;85.49;96831.41;5018724;28;20245;-84
2022/05/26 18:45:56;;;;;;;5.25;1.60;;;;;;;19.76;87.60;96836.09;5020695;28;20238;-85
2022/05/26 18:48:24;;;;;;;4.78;1.30;;;;;;;19.75;88.20;96835.25;5025009;28;20202;-85
2022/05/26 18:50:51;;;;;;;2.58;1.38;;;;;;;19.68;89.45;96840.22;5034848;28;20207;-85
2022/05/26 18:53:21;;;;;;;2.22;1.45;;;;;;;19.61;89.00;96834.19;5016482;28;20249;-86
2022/05/26 18:55:52;;;;;;;3.85;1.52;;;;;;;19.60;88.95;96829.81;5011885;28;20214;-85
2022/05/26 18:58:20;;;;;;;3.90;1.60;;;;;;;19.55;88.88;96832.56;5024678;28;20204;-84
2022/05/26 19:00:50;;;;;;;4.25;1.45;;;;;;;19.67;86.99;96840.47;5019080;28;20290;-85
2022/05/26 19:03:22;;;;;;;2.42;1.50;;;;;;;19.59;85.97;96830.91;5024082;28;20214;-85
2022/05/26 19:05:56;;;;;;;1.80;1.30;;;;;;;19.60;87.45;96838.84;5023146;28;20350;-85
2022/05/26 19:08:24;;;;;;;2.38;1.60;;;;;;;19.57;86.74;96844.88;5027236;28;20237;-85
2022/05/26 19:10:52;;;;;;;3.78;1.80;;;;;;;19.56;88.13;96836.94;5019279;28;20195;-90
2022/05/26 19:13:25;;;;;;;3.08;1.75;;;;;;;19.53;89.95;96843.78;5018108;28;20242;-84
2022/05/26 19:15:53;;;;;;;3.72;1.35;;;;;;;19.28;92.89;96832.81;5041480;28;20301;-84
2022/05/26 19:18:21;;;;;;;1.83;1.20;;;;;;;19.23;91.15;96843.75;5018633;28;20227;-84
2022/05/26 19:20:54;;;;;;;2.95;1.30;;;;;;;19.14;89.37;96850.88;5019239;28;20372;-85
2022/05/26 19:23:22;;;;;;;2.40;1.90;;;;;;;19.16;88.48;96856.88;5031059;28;20207;-85
2022/05/26 19:25:52;;;;;;;3.53;2.25;;;;;;;19.16;85.35;96854.97;5011465;28;20203;-84
2022/05/26 19:28:23;;;;;;;2.42;2.00;;;;;;;19.18;88.38;96860.19;5015505;28;20262;-84
2022/05/26 19:30:53;;;;;;;2.72;1.60;;;;;;;19.16;89.59;96856.88;5039662;28;20364;-84
2022/05/26 19:33:22;;;;;;;2.97;1.67;;;;;;;18.99;91.47;96859.88;5022452;28;20301;-83
2022/05/26 19:35:49;;;;;;;1.73;1.50;;;;;;;18.93;93.16;96871.09;5019100;28;20214;-84
2022/05/26 19:38:17;;;;;;;2.65;1.38;;;;;;;18.88;93.44;96872.72;5017230;28;20231;-85
2022/05/26 19:40:45;;;;;;;2.00;1.70;;;;;;;18.85;93.88;96876.00;5032687;28;20214;-84
2022/05/26 19:43:16;;;;;;;3.42;1.60;;;;;;;18.77;96.07;96878.44;5015957;28;20269;-83
2022/05/26 19:45:43;;;;;;;3.75;1.40;;;;;;;18.63;96.42;96880.84;5017918;28;20276;-84
2022/05/26 19:48:10;;;;;;;2.95;1.50;;;;;;;18.55;94.72;96881.34;5019097;28;20203;-83
2022/05/26 19:50:39;;;;;;;4.35;1.73;;;;;;;18.53;94.75;96884.38;5016061;28;20242;-84
2022/05/26 19:53:06;;;;;;;3.53;1.52;;;;;;;18.50;93.34;96892.28;5021701;28;20214;-84
2022/05/26 19:55:33;;;;;;;1.60;1.50;;;;;;;18.45;92.88;96887.63;5032524;28;20210;-83
2022/05/26 19:58:01;;;;;;;2.95;1.60;;;;;;;18.38;87.69;96891.66;5020713;28;20249;-84
2022/05/26 20:00:29;;;;;;;3.30;1.73;;;;;;;18.47;87.94;96893.63;5021732;28;20228;-83
2022/05/26 20:02:57;;;;;;;4.50;1.90;;;;;;;18.54;90.74;96907.06;5037064;28;20202;-85
2022/05/26 20:05:34;;;;;;;3.20;1.50;;;;;;;18.49;92.22;96905.13;5012662;28;20210;-83
2022/05/26 20:08:03;;;;;;;1.93;1.30;;;;;;;18.36;93.46;96902.88;5009252;28;20403;-83